Terminal Aerodrome Forecast
Issued by NWS

Home | Current Version | Previous Version | Graphics & Text | Print | Product List | Glossary Off
Versions: 1 2 3 4 5 6 7 8 9 10 11 12 13

491
FTUS43 KICT 271142
TAFCNU
TAF
KCNU 271142Z 2712/2812 08004KT 3SM BR SCT003
      TEMPO 2712/2714 1/2SM FG BKN003
     FM271500 13008KT 6SM BR SCT012
     FM271900 15011KT P6SM BKN030
     FM272200 16012KT P6SM VCSH BKN030
     FM280300 15014KT 4SM BR OVC007=

USA.gov is the U.S. government's official web portal to all federal, state and local government web resources and services.